sensor_id;sensor_type;location;lat;lon;timestamp;temperature;humidity
10441;DHT22;5268;49.346;9.522;2023-12-22T04:06:03;5.60;99.90
10441;DHT22;5268;49.346;9.522;2023-12-22T04:11:05;5.60;99.90
10441;DHT22;5268;49.346;9.522;2023-12-22T04:16:07;5.60;99.90
10441;DHT22;5268;49.346;9.522;2023-12-22T04:21:10;5.60;99.90
10441;DHT22;5268;49.346;9.522;2023-12-22T04:26:12;5.60;99.90
10441;DHT22;5268;49.346;9.522;2023-12-22T04:31:14;5.60;99.90
10441;DHT22;5268;49.346;9.522;2023-12-22T04:36:18;5.80;99.90
10441;DHT22;5268;49.346;9.522;2023-12-22T04:41:20;5.70;99.90
10441;DHT22;5268;49.346;9.522;2023-12-22T04:46:22;5.80;99.90
10441;DHT22;5268;49.346;9.522;2023-12-22T04:51:25;5.80;99.90
10441;DHT22;5268;49.346;9.522;2023-12-22T04:56:27;5.80;99.90
10441;DHT22;5268;49.346;9.522;2023-12-22T05:01:30;5.80;99.90
10441;DHT22;5268;49.346;9.522;2023-12-22T05:06:33;5.80;99.90
10441;DHT22;5268;49.346;9.522;2023-12-22T05:11:35;5.80;99.90
10441;DHT22;5268;49.346;9.522;2023-12-22T05:16:37;5.80;99.90
10441;DHT22;5268;49.346;9.522;2023-12-22T05:21:41;5.80;99.90
10441;DHT22;5268;49.346;9.522;2023-12-22T05:26:42;5.80;99.90
10441;DHT22;5268;49.346;9.522;2023-12-22T05:31:45;5.80;99.90
10441;DHT22;5268;49.346;9.522;2023-12-22T05:36:48;5.80;99.90
10441;DHT22;5268;49.346;9.522;2023-12-22T05:41:50;5.80;99.90
10441;DHT22;5268;49.346;9.522;2023-12-22T05:46:52;5.80;99.90
10441;DHT22;5268;49.346;9.522;2023-12-22T05:51:55;5.80;99.90
10441;DHT22;5268;49.346;9.522;2023-12-22T05:57:01;5.80;99.90
10441;DHT22;5268;49.346;9.522;2023-12-22T06:02:05;5.90;99.90
10441;DHT22;5268;49.346;9.522;2023-12-22T06:07:09;5.90;99.90
10441;DHT22;5268;49.346;9.522;2023-12-22T06:12:11;5.90;99.90
10441;DHT22;5268;49.346;9.522;2023-12-22T06:17:13;6.00;99.90
10441;DHT22;5268;49.346;9.522;2023-12-22T06:22:17;6.00;99.90
10441;DHT22;5268;49.346;9.522;2023-12-22T06:27:19;6.00;99.90
10441;DHT22;5268;49.346;9.522;2023-12-22T06:32:21;6.00;99.90
10441;DHT22;5268;49.346;9.522;2023-12-22T06:37:24;6.00;99.90
10441;DHT22;5268;49.346;9.522;2023-12-22T06:42:26;6.00;99.90
10441;DHT22;5268;49.346;9.522;2023-12-22T06:47:28;6.00;99.90
10441;DHT22;5268;49.346;9.522;2023-12-22T06:52:32;6.00;99.90
10441;DHT22;5268;49.346;9.522;2023-12-22T06:57:34;5.90;99.90
10441;DHT22;5268;49.346;9.522;2023-12-22T07:02:36;5.90;99.90
10441;DHT22;5268;49.346;9.522;2023-12-22T07:07:40;6.00;99.90
10441;DHT22;5268;49.346;9.522;2023-12-22T07:12:42;5.90;99.90
10441;DHT22;5268;49.346;9.522;2023-12-22T07:17:44;5.90;99.90
10441;DHT22;5268;49.346;9.522;2023-12-22T07:22:47;5.90;99.90
10441;DHT22;5268;49.346;9.522;2023-12-22T07:27:49;5.90;99.90
10441;DHT22;5268;49.346;9.522;2023-12-22T07:32:52;5.90;99.90
10441;DHT22;5268;49.346;9.522;2023-12-22T07:37:55;5.90;99.90
10441;DHT22;5268;49.346;9.522;2023-12-22T07:42:58;5.90;99.90
10441;DHT22;5268;49.346;9.522;2023-12-22T07:48:00;6.00;99.90
10441;DHT22;5268;49.346;9.522;2023-12-22T07:53:03;6.00;99.90
10441;DHT22;5268;49.346;9.522;2023-12-22T07:58:05;6.00;99.90
10441;DHT22;5268;49.346;9.522;2023-12-22T08:03:08;6.10;99.90
10441;DHT22;5268;49.346;9.522;2023-12-22T08:08:12;6.10;99.90
10441;DHT22;5268;49.346;9.522;2023-12-22T08:13:14;6.10;99.90
10441;DHT22;5268;49.346;9.522;2023-12-22T08:18:18;6.10;99.90
10441;DHT22;5268;49.346;9.522;2023-12-22T08:23:21;6.20;99.90
10441;DHT22;5268;49.346;9.522;2023-12-22T08:28:23;6.30;99.90
10441;DHT22;5268;49.346;9.522;2023-12-22T08:33:26;6.40;99.90
10441;DHT22;5268;49.346;9.522;2023-12-22T08:38:30;6.50;99.90
10441;DHT22;5268;49.346;9.522;2023-12-22T08:43:31;6.50;99.90
10441;DHT22;5268;49.346;9.522;2023-12-22T08:48:33;6.60;99.90
10441;DHT22;5268;49.346;9.522;2023-12-22T08:53:37;6.70;99.90
10441;DHT22;5268;49.346;9.522;2023-12-22T08:58:40;6.80;99.90
10441;DHT22;5268;49.346;9.522;2023-12-22T09:03:42;6.80;99.90
10441;DHT22;5268;49.346;9.522;2023-12-22T09:08:48;6.90;99.90
10441;DHT22;5268;49.346;9.522;2023-12-22T09:13:50;7.00;99.90
10441;DHT22;5268;49.346;9.522;2023-12-22T09:18:52;7.00;99.90
10441;DHT22;5268;49.346;9.522;2023-12-22T09:23:56;7.10;99.90
10441;DHT22;5268;49.346;9.522;2023-12-22T09:28:58;7.20;99.90
10441;DHT22;5268;49.346;9.522;2023-12-22T09:34:00;7.10;99.90
10441;DHT22;5268;49.346;9.522;2023-12-22T09:39:04;7.20;99.90
10441;DHT22;5268;49.346;9.522;2023-12-22T09:44:06;7.10;99.90
10441;DHT22;5268;49.346;9.522;2023-12-22T09:49:08;7.10;99.90
10441;DHT22;5268;49.346;9.522;2023-12-22T09:54:13;7.10;99.90
10441;DHT22;5268;49.346;9.522;2023-12-22T09:59:16;7.10;99.90
10441;DHT22;5268;49.346;9.522;2023-12-22T10:04:19;7.10;99.90
10441;DHT22;5268;49.346;9.522;2023-12-22T10:09:22;7.20;99.90
10441;DHT22;5268;49.346;9.522;2023-12-22T10:14:24;7.20;99.90
10441;DHT22;5268;49.346;9.522;2023-12-22T10:19:27;7.30;99.90
10441;DHT22;5268;49.346;9.522;2023-12-22T10:24:40;7.30;99.90
10441;DHT22;5268;49.346;9.522;2023-12-22T10:29:44;7.40;99.90
10441;DHT22;5268;49.346;9.522;2023-12-22T10:34:46;7.40;99.90
10441;DHT22;5268;49.346;9.522;2023-12-22T10:39:52;7.40;99.90
10441;DHT22;5268;49.346;9.522;2023-12-22T10:44:54;7.50;99.90
10441;DHT22;5268;49.346;9.522;2023-12-22T10:49:57;7.50;99.90
10441;DHT22;5268;49.346;9.522;2023-12-22T10:55:00;7.50;99.90
10441;DHT22;5268;49.346;9.522;2023-12-22T11:00:05;7.50;99.90
10441;DHT22;5268;49.346;9.522;2023-12-22T11:05:10;7.60;99.90
10441;DHT22;5268;49.346;9.522;2023-12-22T11:10:18;7.60;99.90
10441;DHT22;5268;49.346;9.522;2023-12-22T11:15:22;7.60;99.90
10441;DHT22;5268;49.346;9.522;2023-12-22T11:20:25;7.70;99.90
10441;DHT22;5268;49.346;9.522;2023-12-22T11:25:30;7.70;99.90
10441;DHT22;5268;49.346;9.522;2023-12-22T11:30:34;7.70;99.90
10441;DHT22;5268;49.346;9.522;2023-12-22T11:35:38;7.80;99.90
10441;DHT22;5268;49.346;9.522;2023-12-22T11:40:42;7.80;99.90
10441;DHT22;5268;49.346;9.522;2023-12-22T11:45:44;7.80;99.90
10441;DHT22;5268;49.346;9.522;2023-12-22T11:50:47;7.80;99.90
10441;DHT22;5268;49.346;9.522;2023-12-22T11:56:03;7.80;99.90
10441;DHT22;5268;49.346;9.522;2023-12-22T12:01:07;7.80;99.90
10441;DHT22;5268;49.346;9.522;2023-12-22T12:06:11;7.80;99.90
10441;DHT22;5268;49.346;9.522;2023-12-22T12:11:17;7.80;99.90
10441;DHT22;5268;49.346;9.522;2023-12-22T12:16:20;7.80;99.90
10441;DHT22;5268;49.346;9.522;2023-12-22T12:21:23;7.90;99.90
10441;DHT22;5268;49.346;9.522;2023-12-22T12:26:27;7.90;99.90
10441;DHT22;5268;49.346;9.522;2023-12-22T12:31:36;7.90;99.90
10441;DHT22;5268;49.346;9.522;2023-12-22T12:36:39;7.90;99.90
10441;DHT22;5268;49.346;9.522;2023-12-22T12:41:43;7.90;99.90
10441;DHT22;5268;49.346;9.522;2023-12-22T12:46:45;7.90;99.90
10441;DHT22;5268;49.346;9.522;2023-12-22T12:51:48;7.90;99.90
10441;DHT22;5268;49.346;9.522;2023-12-22T12:56:52;7.90;99.90
10441;DHT22;5268;49.346;9.522;2023-12-22T13:01:54;7.90;99.90
10441;DHT22;5268;49.346;9.522;2023-12-22T13:06:57;8.00;99.90
10441;DHT22;5268;49.346;9.522;2023-12-22T13:12:01;8.00;99.90
10441;DHT22;5268;49.346;9.522;2023-12-22T13:17:04;8.00;99.90
10441;DHT22;5268;49.346;9.522;2023-12-22T13:22:07;8.00;99.90
10441;DHT22;5268;49.346;9.522;2023-12-22T13:27:11;8.00;99.90
10441;DHT22;5268;49.346;9.522;2023-12-22T13:32:17;8.10;99.90
10441;DHT22;5268;49.346;9.522;2023-12-22T13:37:19;8.20;99.90
10441;DHT22;5268;49.346;9.522;2023-12-22T13:42:23;8.20;99.90
10441;DHT22;5268;49.346;9.522;2023-12-22T13:47:25;8.20;99.90
10441;DHT22;5268;49.346;9.522;2023-12-22T13:52:28;8.30;99.90
10441;DHT22;5268;49.346;9.522;2023-12-22T13:57:34;8.30;99.90
10441;DHT22;5268;49.346;9.522;2023-12-22T14:02:36;8.40;99.90
10441;DHT22;5268;49.346;9.522;2023-12-22T14:07:38;8.40;99.90
10441;DHT22;5268;49.346;9.522;2023-12-22T14:12:41;8.40;99.90
10441;DHT22;5268;49.346;9.522;2023-12-22T14:17:44;8.40;99.90
10441;DHT22;5268;49.346;9.522;2023-12-22T14:22:46;8.50;99.90
10441;DHT22;5268;49.346;9.522;2023-12-22T14:27:49;8.50;99.90
10441;DHT22;5268;49.346;9.522;2023-12-22T14:32:51;8.60;99.90
10441;DHT22;5268;49.346;9.522;2023-12-22T14:37:53;8.60;99.90
10441;DHT22;5268;49.346;9.522;2023-12-22T14:42:57;8.70;99.90
10441;DHT22;5268;49.346;9.522;2023-12-22T14:47:59;8.70;99.90
10441;DHT22;5268;49.346;9.522;2023-12-22T14:53:01;8.80;99.90
10441;DHT22;5268;49.346;9.522;2023-12-22T14:58:05;8.80;99.90
10441;DHT22;5268;49.346;9.522;2023-12-22T15:03:09;8.80;99.90
10441;DHT22;5268;49.346;9.522;2023-12-22T15:08:11;8.90;99.90
10441;DHT22;5268;49.346;9.522;2023-12-22T15:13:14;8.90;99.90
10441;DHT22;5268;49.346;9.522;2023-12-22T15:18:17;9.00;99.90
10441;DHT22;5268;49.346;9.522;2023-12-22T15:23:18;9.00;99.90
10441;DHT22;5268;49.346;9.522;2023-12-22T15:28:22;9.00;99.90
10441;DHT22;5268;49.346;9.522;2023-12-22T15:33:24;9.10;99.90
10441;DHT22;5268;49.346;9.522;2023-12-22T15:38:26;9.10;99.90
10441;DHT22;5268;49.346;9.522;2023-12-22T15:43:29;9.10;99.90
10441;DHT22;5268;49.346;9.522;2023-12-22T15:48:31;9.10;99.90
10441;DHT22;5268;49.346;9.522;2023-12-22T15:53:33;9.10;99.90
10441;DHT22;5268;49.346;9.522;2023-12-22T15:58:37;9.10;99.90
10441;DHT22;5268;49.346;9.522;2023-12-22T16:03:41;9.20;99.90
10441;DHT22;5268;49.346;9.522;2023-12-22T16:08:43;9.20;99.90
10441;DHT22;5268;49.346;9.522;2023-12-22T16:13:46;9.20;99.90
10441;DHT22;5268;49.346;9.522;2023-12-22T16:18:48;9.20;99.90
10441;DHT22;5268;49.346;9.522;2023-12-22T16:23:50;9.20;99.90
10441;DHT22;5268;49.346;9.522;2023-12-22T16:28:53;9.20;99.90
10441;DHT22;5268;49.346;9.522;2023-12-22T16:33:55;9.20;99.90
10441;DHT22;5268;49.346;9.522;2023-12-22T16:38:57;9.30;99.90
10441;DHT22;5268;49.346;9.522;2023-12-22T16:44:01;9.20;99.90
10441;DHT22;5268;49.346;9.522;2023-12-22T16:49:03;9.30;99.90
10441;DHT22;5268;49.346;9.522;2023-12-22T16:54:07;9.30;99.90
10441;DHT22;5268;49.346;9.522;2023-12-22T16:59:10;9.30;99.90
10441;DHT22;5268;49.346;9.522;2023-12-22T17:04:12;9.30;99.90
10441;DHT22;5268;49.346;9.522;2023-12-22T17:09:14;9.30;99.90
10441;DHT22;5268;49.346;9.522;2023-12-22T17:14:18;9.30;99.90
10441;DHT22;5268;49.346;9.522;2023-12-22T17:19:20;9.30;99.90
10441;DHT22;5268;49.346;9.522;2023-12-22T17:24:22;9.30;99.90
10441;DHT22;5268;49.346;9.522;2023-12-22T17:29:25;9.30;99.90
10441;DHT22;5268;49.346;9.522;2023-12-22T17:34:27;9.30;99.90
10441;DHT22;5268;49.346;9.522;2023-12-22T17:39:29;9.30;99.90
10441;DHT22;5268;49.346;9.522;2023-12-22T17:44:32;9.30;99.90
10441;DHT22;5268;49.346;9.522;2023-12-22T17:49:35;9.20;99.90
10441;DHT22;5268;49.346;9.522;2023-12-22T17:54:37;9.20;99.90
10441;DHT22;5268;49.346;9.522;2023-12-22T17:59:40;9.20;99.90
10441;DHT22;5268;49.346;9.522;2023-12-22T18:04:42;9.20;99.90
10441;DHT22;5268;49.346;9.522;2023-12-22T18:09:45;9.30;99.90
10441;DHT22;5268;49.346;9.522;2023-12-22T18:14:48;9.30;99.90
10441;DHT22;5268;49.346;9.522;2023-12-22T18:19:50;9.30;99.90
10441;DHT22;5268;49.346;9.522;2023-12-22T18:24:52;9.30;99.90
10441;DHT22;5268;49.346;9.522;2023-12-22T18:29:55;9.30;99.90
10441;DHT22;5268;49.346;9.522;2023-12-22T18:34:58;9.30;99.90
10441;DHT22;5268;49.346;9.522;2023-12-22T18:40:00;9.30;99.90
10441;DHT22;5268;49.346;9.522;2023-12-22T18:45:04;9.30;99.90
10441;DHT22;5268;49.346;9.522;2023-12-22T18:50:06;9.30;99.90
10441;DHT22;5268;49.346;9.522;2023-12-22T18:55:09;9.30;99.90
10441;DHT22;5268;49.346;9.522;2023-12-22T19:00:14;9.30;99.90
10441;DHT22;5268;49.346;9.522;2023-12-22T19:05:16;9.30;99.90
10441;DHT22;5268;49.346;9.522;2023-12-22T19:10:18;9.30;99.90
10441;DHT22;5268;49.346;9.522;2023-12-22T19:15:21;9.30;99.90
10441;DHT22;5268;49.346;9.522;2023-12-22T19:20:24;9.30;99.90
10441;DHT22;5268;49.346;9.522;2023-12-22T19:25:27;9.30;99.90
10441;DHT22;5268;49.346;9.522;2023-12-22T19:30:30;9.30;99.90
10441;DHT22;5268;49.346;9.522;2023-12-22T19:35:33;9.30;99.90
10441;DHT22;5268;49.346;9.522;2023-12-22T19:40:35;9.30;99.90
10441;DHT22;5268;49.346;9.522;2023-12-22T19:45:39;9.30;99.90
10441;DHT22;5268;49.346;9.522;2023-12-22T19:50:45;9.30;99.90
10441;DHT22;5268;49.346;9.522;2023-12-22T19:55:49;9.30;99.90
10441;DHT22;5268;49.346;9.522;2023-12-22T20:00:52;9.30;99.90
10441;DHT22;5268;49.346;9.522;2023-12-22T20:05:54;9.30;99.90
10441;DHT22;5268;49.346;9.522;2023-12-22T20:10:56;9.30;99.90
10441;DHT22;5268;49.346;9.522;2023-12-22T20:16:00;9.30;99.90
10441;DHT22;5268;49.346;9.522;2023-12-22T20:21:03;9.30;99.90
10441;DHT22;5268;49.346;9.522;2023-12-22T20:26:05;9.30;99.90
10441;DHT22;5268;49.346;9.522;2023-12-22T20:31:09;9.20;99.90
10441;DHT22;5268;49.346;9.522;2023-12-22T20:36:11;9.30;99.90
10441;DHT22;5268;49.346;9.522;2023-12-22T20:41:14;9.20;99.90
10441;DHT22;5268;49.346;9.522;2023-12-22T20:46:18;9.20;99.90
10441;DHT22;5268;49.346;9.522;2023-12-22T20:51:20;9.20;99.90
10441;DHT22;5268;49.346;9.522;2023-12-22T20:56:22;9.20;99.90
10441;DHT22;5268;49.346;9.522;2023-12-22T21:01:26;9.20;99.90
10441;DHT22;5268;49.346;9.522;2023-12-22T21:06:28;9.20;99.90
10441;DHT22;5268;49.346;9.522;2023-12-22T21:11:30;9.20;99.90
10441;DHT22;5268;49.346;9.522;2023-12-22T21:16:34;9.10;99.90
10441;DHT22;5268;49.346;9.522;2023-12-22T21:21:41;9.10;99.90
10441;DHT22;5268;49.346;9.522;2023-12-22T21:26:43;9.10;99.90
10441;DHT22;5268;49.346;9.522;2023-12-22T21:31:46;9.10;99.90
10441;DHT22;5268;49.346;9.522;2023-12-22T21:36:48;9.10;99.90
10441;DHT22;5268;49.346;9.522;2023-12-22T21:41:51;9.10;99.90
10441;DHT22;5268;49.346;9.522;2023-12-22T21:46:55;9.20;99.90
10441;DHT22;5268;49.346;9.522;2023-12-22T21:51:57;9.20;99.90
10441;DHT22;5268;49.346;9.522;2023-12-22T21:56:59;9.20;99.90
10441;DHT22;5268;49.346;9.522;2023-12-22T22:02:02;9.20;99.90
10441;DHT22;5268;49.346;9.522;2023-12-22T22:07:04;9.20;99.90
10441;DHT22;5268;49.346;9.522;2023-12-22T22:12:07;9.20;99.90
10441;DHT22;5268;49.346;9.522;2023-12-22T22:17:10;9.10;99.90
10441;DHT22;5268;49.346;9.522;2023-12-22T22:22:12;9.20;99.90
10441;DHT22;5268;49.346;9.522;2023-12-22T22:27:14;9.10;99.90
10441;DHT22;5268;49.346;9.522;2023-12-22T22:32:17;9.10;99.90
10441;DHT22;5268;49.346;9.522;2023-12-22T22:37:19;9.00;99.90
10441;DHT22;5268;49.346;9.522;2023-12-22T22:42:21;9.00;99.90
10441;DHT22;5268;49.346;9.522;2023-12-22T22:47:25;8.90;99.90
10441;DHT22;5268;49.346;9.522;2023-12-22T22:52:27;8.90;99.90
